Time;durP1;ratioP1;P1;durP2;ratioP2;P2;SDS_P1;SDS_P2;PMS_P1;PMS_P2;Temp;Humidity;BMP_temperature;BMP_pressure;BME280_temperature;BME280_humidity;BME280_pressure;Samples;Min_cycle;Max_cycle;Signal;HPM_P1;HPM_P2
2022/05/22 00:01:58;;;;;;;5.67;4.60;;;14.80;76.70;;;;;;5053926;28;20441;-64
2022/05/22 00:04:26;;;;;;;6.97;4.50;;;14.80;76.30;;;;;;5054192;28;20437;-64
2022/05/22 00:06:53;;;;;;;5.50;3.90;;;14.80;76.60;;;;;;5053836;28;20554;-64
2022/05/22 00:09:20;;;;;;;5.80;3.57;;;14.70;76.90;;;;;;5054104;28;20448;-65
2022/05/22 00:11:48;;;;;;;4.80;3.97;;;14.50;77.30;;;;;;5053505;28;20473;-64
2022/05/22 00:14:15;;;;;;;6.10;4.20;;;14.50;77.50;;;;;;5054253;28;20876;-63
2022/05/22 00:16:46;;;;;;;5.63;4.23;;;14.40;77.70;;;;;;5053217;28;20548;-64
2022/05/22 00:19:17;;;;;;;5.60;4.97;;;14.40;78.70;;;;;;5053029;28;20927;-64
2022/05/22 00:21:45;;;;;;;12.40;6.30;;;14.30;79.00;;;;;;5053446;28;20441;-64
2022/05/22 00:24:14;;;;;;;6.37;5.10;;;14.30;79.60;;;;;;5053719;28;20467;-64
2022/05/22 00:26:41;;;;;;;9.93;5.07;;;14.30;79.50;;;;;;5053193;28;20484;-63
2022/05/22 00:29:09;;;;;;;6.77;4.57;;;14.30;79.70;;;;;;5053634;28;20449;-64
2022/05/22 00:31:36;;;;;;;7.27;5.00;;;14.30;79.00;;;;;;5053190;28;20487;-64
2022/05/22 00:34:04;;;;;;;7.40;4.27;;;14.20;79.00;;;;;;5053667;28;20484;-64
2022/05/22 00:36:33;;;;;;;6.50;4.00;;;14.20;79.40;;;;;;5053141;28;20525;-65
2022/05/22 00:39:01;;;;;;;10.07;4.50;;;14.20;79.70;;;;;;5053474;28;20441;-65
2022/05/22 00:41:28;;;;;;;7.23;5.10;;;14.10;79.60;;;;;;5053063;28;20452;-64
2022/05/22 00:43:57;;;;;;;8.60;4.97;;;14.10;80.30;;;;;;5053370;28;20441;-63
2022/05/22 00:46:25;;;;;;;10.07;7.47;;;14.10;80.50;;;;;;5052883;28;20504;-63
2022/05/22 00:48:59;;;;;;;8.00;5.67;;;14.10;80.30;;;;;;5053196;28;20559;-64
2022/05/22 00:51:32;;;;;;;11.13;6.30;;;14.00;80.60;;;;;;5053209;28;20439;-64
2022/05/22 00:54:07;;;;;;;8.13;5.83;;;14.00;80.80;;;;;;5053308;28;20443;-64
2022/05/22 00:56:40;;;;;;;10.87;5.67;;;13.90;81.50;;;;;;5052837;28;20830;-64
2022/05/22 00:59:10;;;;;;;10.63;6.77;;;13.90;81.90;;;;;;5053125;28;20441;-64
2022/05/22 01:01:39;;;;;;;11.87;6.00;;;13.90;81.90;;;;;;5052624;28;20491;-64
2022/05/22 01:04:15;;;;;;;8.53;5.73;;;13.90;82.30;;;;;;5052951;28;20947;-64
2022/05/22 01:06:42;;;;;;;10.03;5.30;;;13.90;81.50;;;;;;5052499;28;20538;-64
2022/05/22 01:09:11;;;;;;;5.37;4.17;;;13.90;80.90;;;;;;5052168;28;20437;-64
2022/05/22 01:11:39;;;;;;;4.40;3.27;;;13.80;80.60;;;;;;5052431;28;20444;-65
2022/05/22 01:14:10;;;;;;;4.70;3.97;;;13.80;81.10;;;;;;5052123;28;20437;-64
2022/05/22 01:16:41;;;;;;;6.73;4.20;;;13.80;81.50;;;;;;5052570;28;20444;-64
2022/05/22 01:19:15;;;;;;;14.47;6.40;;;13.70;81.20;;;;;;5052571;28;20440;-65
2022/05/22 01:21:49;;;;;;;10.13;6.25;;;13.70;81.40;;;;;;5052726;28;20439;-63
2022/05/22 01:24:16;;;;;;;15.57;6.80;;;13.60;82.30;;;;;;5052258;28;20224;-65
2022/05/22 01:26:44;;;;;;;17.53;7.27;;;13.60;82.20;;;;;;5052102;28;20544;-64
2022/05/22 01:29:11;;;;;;;7.07;5.03;;;13.60;82.00;;;;;;5052072;28;20842;-65
2022/05/22 01:31:38;;;;;;;5.90;3.93;;;13.60;81.40;;;;;;5051947;28;20522;-64
2022/05/22 01:34:06;;;;;;;9.03;3.93;;;13.60;80.90;;;;;;5052100;28;20508;-64
2022/05/22 01:36:33;;;;;;;8.43;3.23;;;13.60;80.80;;;;;;5051953;28;20443;-64
2022/05/22 01:39:01;;;;;;;3.67;3.20;;;13.60;80.90;;;;;;5051955;28;20447;-64
2022/05/22 01:41:28;;;;;;;4.57;3.17;;;13.60;81.10;;;;;;5052454;28;20490;-63
2022/05/22 01:43:56;;;;;;;6.13;4.30;;;13.40;81.30;;;;;;5052422;28;20488;-70
2022/05/22 01:46:23;;;;;;;6.50;4.10;;;13.40;81.40;;;;;;5051408;28;20437;-63
2022/05/22 01:48:53;;;;;;;6.43;3.65;;;13.30;80.20;;;;;;5051862;28;20500;-64
2022/05/22 01:51:20;;;;;;;5.47;3.75;;;13.10;81.10;;;;;;5052104;28;20567;-64
2022/05/22 01:53:48;;;;;;;5.50;4.40;;;13.00;81.60;;;;;;5052146;28;20198;-64
2022/05/22 01:56:16;;;;;;;6.53;4.27;;;13.00;82.00;;;;;;5050970;28;20801;-63
2022/05/22 01:58:44;;;;;;;4.20;3.60;;;13.00;82.80;;;;;;5052068;28;20479;-63
2022/05/22 02:01:12;;;;;;;11.60;4.20;;;13.00;83.20;;;;;;5052003;28;20284;-64
2022/05/22 02:03:39;;;;;;;8.35;4.55;;;12.90;83.80;;;;;;5051958;28;20447;-64
2022/05/22 02:06:06;;;;;;;5.20;3.63;;;12.90;84.20;;;;;;5051109;28;20186;-64
2022/05/22 02:08:33;;;;;;;6.93;4.10;;;12.80;85.20;;;;;;5051973;28;20218;-65
2022/05/22 02:11:02;;;;;;;5.20;3.80;;;12.90;84.80;;;;;;5051665;28;20183;-64
2022/05/22 02:13:34;;;;;;;5.50;3.80;;;12.80;84.30;;;;;;5051959;28;20190;-64
2022/05/22 02:16:01;;;;;;;6.23;4.00;;;12.80;84.70;;;;;;5051856;28;20903;-65
2022/05/22 02:18:28;;;;;;;3.88;3.20;;;12.80;84.30;;;;;;5051682;28;20461;-64
2022/05/22 02:20:56;;;;;;;9.85;3.50;;;12.80;84.50;;;;;;5051423;28;20190;-64
2022/05/22 02:23:24;;;;;;;4.95;4.28;;;12.80;84.00;;;;;;5051872;28;20744;-64
2022/05/22 02:25:53;;;;;;;5.80;4.70;;;12.70;85.20;;;;;;5051274;28;20557;-64
2022/05/22 02:28:22;;;;;;;5.03;3.88;;;12.70;84.70;;;;;;5051301;28;20876;-63
2022/05/22 02:30:52;;;;;;;6.03;3.60;;;12.70;84.80;;;;;;5051509;28;20275;-64
2022/05/22 02:33:22;;;;;;;3.92;3.50;;;12.70;85.00;;;;;;5051842;28;20202;-64
2022/05/22 02:35:51;;;;;;;5.10;4.15;;;12.70;85.30;;;;;;5051242;28;20225;-64
2022/05/22 02:38:19;;;;;;;4.57;3.28;;;12.80;85.40;;;;;;5052068;28;20198;-64
2022/05/22 02:40:47;;;;;;;6.22;3.88;;;12.80;84.60;;;;;;5051274;28;20190;-64
2022/05/22 02:43:14;;;;;;;5.60;4.75;;;12.70;84.20;;;;;;5055437;28;20554;-64
2022/05/22 02:45:42;;;;;;;7.53;4.57;;;12.70;84.90;;;;;;5055227;28;20644;-64
2022/05/22 02:48:11;;;;;;;5.18;4.03;;;12.70;85.30;;;;;;5055363;28;20225;-64
2022/05/22 02:50:41;;;;;;;5.32;3.65;;;12.70;85.20;;;;;;5054747;28;20194;-64
2022/05/22 02:53:09;;;;;;;4.28;3.10;;;12.60;84.90;;;;;;5055698;28;20238;-64
2022/05/22 02:55:36;;;;;;;5.68;4.13;;;12.50;85.60;;;;;;5054914;28;20222;-64
2022/05/22 02:58:04;;;;;;;5.97;3.90;;;12.50;85.30;;;;;;5055072;28;20214;-64
2022/05/22 03:00:32;;;;;;;4.30;3.50;;;12.50;85.60;;;;;;5055040;28;20657;-63
2022/05/22 03:03:00;;;;;;;7.38;4.57;;;12.50;85.20;;;;;;5054703;28;20277;-63
2022/05/22 03:06:37;;;;;;;8.85;5.25;;;12.40;85.80;;;;;;5055176;28;20194;-63
2022/05/22 03:08:16;;;;;;;5.10;4.00;;;12.40;86.10;;;;;;5054434;28;20210;-63
2022/05/22 03:10:45;;;;;;;4.03;3.50;;;12.50;85.60;;;;;;5054901;28;20316;-64
2022/05/22 03:13:13;;;;;;;7.43;4.75;;;12.40;85.60;;;;;;5054788;28;21088;-64
2022/05/22 03:15:40;;;;;;;8.85;6.50;;;12.30;86.10;;;;;;5054758;28;20194;-63
2022/05/22 03:18:08;;;;;;;6.80;5.45;;;12.30;86.50;;;;;;5054868;28;20191;-63
2022/05/22 03:20:36;;;;;;;6.22;4.22;;;12.40;86.40;;;;;;5054873;28;20190;-64
2022/05/22 03:23:05;;;;;;;4.65;4.03;;;12.40;86.40;;;;;;5054635;28;20285;-67
2022/05/22 03:25:33;;;;;;;3.78;3.33;;;12.20;86.30;;;;;;5035147;28;20191;-64
2022/05/22 03:28:00;;;;;;;8.07;3.97;;;12.20;86.60;;;;;;5035153;28;20226;-64
2022/05/22 03:30:28;;;;;;;5.05;4.30;;;12.20;87.30;;;;;;5054627;28;20202;-63
2022/05/22 03:32:55;;;;;;;6.93;4.13;;;12.10;87.10;;;;;;5054580;28;20264;-63
2022/05/22 03:35:22;;;;;;;5.50;4.30;;;12.10;87.40;;;;;;5054350;28;20232;-64
2022/05/22 03:37:51;;;;;;;10.20;5.00;;;12.10;87.90;;;;;;5054542;28;20194;-64
2022/05/22 03:40:18;;;;;;;9.30;4.72;;;12.20;87.40;;;;;;5053956;28;20324;-63
2022/05/22 03:42:46;;;;;;;11.27;4.15;;;12.20;87.00;;;;;;5054481;28;20195;-63
2022/05/22 03:45:13;;;;;;;5.30;3.83;;;12.20;86.60;;;;;;5053925;28;20186;-64
2022/05/22 03:47:41;;;;;;;5.07;3.75;;;12.30;87.40;;;;;;5054043;28;20280;-64
2022/05/22 03:50:09;;;;;;;5.95;3.78;;;12.30;86.80;;;;;;5054120;28;20286;-64
2022/05/22 03:52:37;;;;;;;4.65;4.00;;;12.20;86.40;;;;;;5053356;28;20600;-64
2022/05/22 03:55:09;;;;;;;6.10;4.32;;;12.20;86.70;;;;;;5053724;28;20194;-64
2022/05/22 03:57:37;;;;;;;6.70;4.93;;;12.20;86.60;;;;;;5054359;28;20196;-65
2022/05/22 04:00:11;;;;;;;6.32;4.75;;;12.30;87.10;;;;;;5053515;28;20358;-63
2022/05/22 04:02:38;;;;;;;10.57;4.68;;;12.40;87.10;;;;;;5054443;28;20190;-64
2022/05/22 04:05:11;;;;;;;8.60;3.45;;;12.40;87.00;;;;;;5054162;28;20193;-64
2022/05/22 04:07:38;;;;;;;4.85;4.10;;;12.40;87.10;;;;;;5054345;28;20304;-64
2022/05/22 04:10:09;;;;;;;8.10;4.35;;;12.40;87.40;;;;;;5054151;28;20261;-64
2022/05/22 04:12:37;;;;;;;5.78;3.53;;;12.40;87.70;;;;;;5054337;28;20194;-64
2022/05/22 04:15:06;;;;;;;6.68;3.42;;;12.40;87.70;;;;;;5054104;28;20612;-64
2022/05/22 04:17:33;;;;;;;6.90;4.40;;;12.40;88.10;;;;;;5054344;28;20609;-64
2022/05/22 04:20:01;;;;;;;4.95;3.88;;;12.50;88.40;;;;;;5053837;28;20191;-63
2022/05/22 04:22:29;;;;;;;5.35;3.50;;;12.70;88.50;;;;;;5054361;28;20218;-63
2022/05/22 04:25:15;;;;;;;8.50;5.45;;;12.70;88.50;;;;;;5053324;28;20186;-64
2022/05/22 04:27:44;;;;;;;7.70;4.73;;;12.80;88.60;;;;;;5053917;28;20305;-63
2022/05/22 04:30:18;;;;;;;8.87;4.53;;;12.80;89.20;;;;;;5053583;28;20433;-63
2022/05/22 04:32:45;;;;;;;6.80;3.72;;;12.90;89.00;;;;;;5053997;28;20992;-64
2022/05/22 04:35:19;;;;;;;7.85;4.43;;;13.00;88.80;;;;;;5053107;28;20185;-64
2022/05/22 04:37:47;;;;;;;7.97;4.70;;;13.00;88.10;;;;;;5053782;28;20190;-63
2022/05/22 04:40:14;;;;;;;7.10;4.63;;;13.10;87.70;;;;;;5053321;28;20526;-64
2022/05/22 04:42:43;;;;;;;10.40;5.50;;;13.20;87.20;;;;;;5053787;28;20841;-64
2022/05/22 04:45:12;;;;;;;4.50;4.10;;;13.20;87.50;;;;;;5052650;28;20187;-64
2022/05/22 04:47:42;;;;;;;5.53;3.50;;;13.30;87.30;;;;;;5053425;28;20546;-64
2022/05/22 04:50:10;;;;;;;4.63;3.77;;;13.40;88.00;;;;;;5053180;28;20445;-64
2022/05/22 04:52:38;;;;;;;10.17;4.40;;;13.50;88.80;;;;;;5053574;28;20464;-64
2022/05/22 04:55:07;;;;;;;8.73;4.60;;;13.50;89.00;;;;;;5052931;28;20466;-64
2022/05/22 04:57:35;;;;;;;4.97;3.87;;;13.60;89.10;;;;;;5053509;28;20882;-64
2022/05/22 05:00:05;;;;;;;6.03;4.77;;;13.80;89.10;;;;;;5053255;28;20521;-64
2022/05/22 05:02:32;;;;;;;6.30;4.63;;;13.90;87.70;;;;;;5053298;28;20786;-64
2022/05/22 05:05:00;;;;;;;7.07;4.07;;;14.00;88.20;;;;;;5052711;28;20502;-64
2022/05/22 05:07:28;;;;;;;6.40;4.20;;;14.10;87.30;;;;;;5053516;28;20510;-64
2022/05/22 05:09:55;;;;;;;4.93;4.40;;;14.10;86.40;;;;;;5052931;28;20441;-64
2022/05/22 05:12:28;;;;;;;6.47;5.27;;;14.20;86.60;;;;;;5053125;28;20523;-64
2022/05/22 05:14:55;;;;;;;6.40;4.40;;;14.30;86.10;;;;;;5052689;28;20928;-64
2022/05/22 05:17:24;;;;;;;7.13;4.73;;;14.30;86.00;;;;;;5053455;28;20818;-64
2022/05/22 05:19:51;;;;;;;5.27;3.77;;;14.40;86.20;;;;;;5052719;28;20480;-63
2022/05/22 05:22:19;;;;;;;5.23;4.47;;;14.40;84.70;;;;;;5052611;28;20488;-65
2022/05/22 05:24:46;;;;;;;5.70;4.00;;;14.40;84.40;;;;;;5053039;28;20440;-64
2022/05/22 05:27:13;;;;;;;6.63;4.67;;;14.50;83.70;;;;;;5053061;28;20779;-64
2022/05/22 05:29:40;;;;;;;4.13;3.10;;;14.40;83.40;;;;;;5052812;28;20518;-64
2022/05/22 05:32:08;;;;;;;5.60;3.97;;;14.30;84.30;;;;;;5052293;28;20437;-64
2022/05/22 05:34:37;;;;;;;5.03;3.63;;;14.40;84.40;;;;;;5052869;28;20441;-63
2022/05/22 05:37:05;;;;;;;5.47;4.40;;;14.50;85.30;;;;;;5051988;28;20444;-64
2022/05/22 05:39:32;;;;;;;7.70;3.90;;;14.60;84.40;;;;;;5052254;28;20499;-64
2022/05/22 05:41:59;;;;;;;7.53;4.20;;;14.50;85.10;;;;;;5051994;28;20441;-64
2022/05/22 05:44:26;;;;;;;4.70;4.10;;;14.70;85.60;;;;;;5052769;28;20433;-64
2022/05/22 05:46:53;;;;;;;5.70;4.17;;;14.80;85.60;;;;;;5052284;28;20471;-64
2022/05/22 05:49:20;;;;;;;4.70;4.20;;;14.80;85.20;;;;;;5049412;28;20618;-64
2022/05/22 05:51:49;;;;;;;5.00;3.67;;;14.80;86.10;;;;;;5050133;28;20527;-64
2022/05/22 05:54:16;;;;;;;5.10;3.87;;;14.90;86.90;;;;;;5050644;28;20508;-64
2022/05/22 05:56:43;;;;;;;6.27;3.90;;;15.00;87.70;;;;;;5050286;28;20995;-65
2022/05/22 05:59:10;;;;;;;7.07;4.00;;;15.10;85.00;;;;;;5050984;28;20480;-64
2022/05/22 06:01:37;;;;;;;6.23;4.63;;;15.20;85.50;;;;;;5050211;28;20429;-66
2022/05/22 06:04:05;;;;;;;5.20;4.40;;;15.30;85.20;;;;;;5048329;28;20425;-64
2022/05/22 06:06:32;;;;;;;4.43;4.00;;;15.40;82.80;;;;;;5050801;28;20490;-64
2022/05/22 06:09:01;;;;;;;5.90;3.90;;;15.60;82.30;;;;;;5050272;28;21010;-64
2022/05/22 06:11:28;;;;;;;6.00;4.10;;;15.70;81.90;;;;;;5050072;28;20441;-65
2022/05/22 06:13:56;;;;;;;5.87;4.83;;;15.80;80.90;;;;;;5050633;28;20437;-64
2022/05/22 06:16:24;;;;;;;5.20;4.30;;;16.00;78.30;;;;;;5052504;28;20490;-64
2022/05/22 06:18:51;;;;;;;6.23;4.20;;;16.00;79.20;;;;;;5057311;28;20939;-64
2022/05/22 06:21:21;;;;;;;4.80;3.97;;;16.10;80.00;;;;;;5056377;28;20447;-64
2022/05/22 06:23:49;;;;;;;5.60;4.37;;;16.30;80.70;;;;;;5056814;28;20476;-64
2022/05/22 06:26:19;;;;;;;5.43;4.10;;;16.40;81.10;;;;;;5056935;28;20880;-64
2022/05/22 06:28:47;;;;;;;5.23;4.43;;;16.60;81.70;;;;;;5056114;28;20488;-66
2022/05/22 06:31:15;;;;;;;4.93;4.40;;;16.80;82.50;;;;;;5056849;28;20508;-64
2022/05/22 06:34:07;;;;;;;4.53;3.80;;;16.90;82.50;;;;;;5057054;28;20486;-65
2022/05/22 06:36:37;;;;;;;6.83;4.10;;;17.10;80.90;;;;;;5055039;28;20886;-65
2022/05/22 06:41:58;;;;;;;5.20;4.43;;;17.30;81.40;;;;;;5056767;28;20436;-64
2022/05/22 06:44:38;;;;;;;5.00;4.40;;;17.40;78.30;;;;;;5052656;28;20586;-64
2022/05/22 06:47:06;;;;;;;6.63;3.97;;;17.60;78.80;;;;;;5056786;28;20446;-65
2022/05/22 06:49:38;;;;;;;7.20;5.90;;;17.70;79.40;;;;;;5052311;28;20818;-64
2022/05/22 06:52:06;;;;;;;4.67;3.93;;;17.90;77.90;;;;;;5056799;28;20452;-64
2022/05/22 06:54:34;;;;;;;6.63;4.77;;;18.00;77.30;;;;;;5056547;28;20501;-66
2022/05/22 06:57:03;;;;;;;4.90;4.10;;;18.10;76.40;;;;;;5056820;28;20483;-65
2022/05/22 06:59:30;;;;;;;5.00;3.97;;;18.20;74.00;;;;;;5056660;28;20514;-64
2022/05/22 07:02:00;;;;;;;5.50;4.40;;;18.30;74.30;;;;;;5056807;28;20506;-64
2022/05/22 07:04:27;;;;;;;9.10;4.67;;;18.40;74.50;;;;;;5056241;28;20443;-64
2022/05/22 07:06:55;;;;;;;5.50;3.87;;;18.60;74.30;;;;;;5056693;28;20520;-64
2022/05/22 07:09:22;;;;;;;6.70;4.33;;;18.70;73.00;;;;;;5056088;28;20476;-64
2022/05/22 07:11:53;;;;;;;7.30;3.57;;;18.80;73.20;;;;;;5056559;28;20432;-64
2022/05/22 07:14:23;;;;;;;4.33;3.67;;;19.00;73.30;;;;;;5052687;28;20491;-67
2022/05/22 07:16:51;;;;;;;5.30;3.80;;;19.10;69.50;;;;;;5056717;28;21095;-64
2022/05/22 07:19:19;;;;;;;7.03;4.90;;;19.20;70.40;;;;;;5056675;28;20854;-65
2022/05/22 07:21:47;;;;;;;7.07;4.83;;;19.30;70.10;;;;;;5055864;28;20451;-64
2022/05/22 07:24:14;;;;;;;7.40;3.40;;;19.40;69.00;;;;;;5055732;28;20557;-65
2022/05/22 07:26:42;;;;;;;4.63;3.93;;;19.50;67.30;;;;;;5056635;28;20561;-64
2022/05/22 07:29:09;;;;;;;6.37;4.23;;;19.60;65.70;;;;;;5053168;28;20512;-65
2022/05/22 07:31:40;;;;;;;5.10;3.57;;;19.70;65.00;;;;;;5053801;28;20440;-65
2022/05/22 07:34:09;;;;;;;5.23;3.50;;;19.80;65.90;;;;;;5053489;28;20437;-64
2022/05/22 07:36:36;;;;;;;5.13;2.90;;;19.90;62.80;;;;;;5053089;28;20841;-67
2022/05/22 07:39:09;;;;;;;6.03;4.20;;;19.90;63.80;;;;;;5052637;28;20520;-64
2022/05/22 07:41:36;;;;;;;4.00;2.93;;;20.00;63.30;;;;;;5053183;28;20522;-65
2022/05/22 07:44:04;;;;;;;3.83;3.40;;;20.00;62.70;;;;;;5052956;28;20837;-64
2022/05/22 07:46:31;;;;;;;6.00;3.67;;;20.20;63.70;;;;;;5052532;28;21036;-64
2022/05/22 07:49:00;;;;;;;6.23;3.33;;;20.40;64.00;;;;;;5052576;28;20489;-64
2022/05/22 07:51:27;;;;;;;3.10;2.70;;;20.60;65.10;;;;;;5052541;28;20472;-65
2022/05/22 07:53:54;;;;;;;5.10;3.03;;;20.70;65.20;;;;;;5052379;28;20447;-67
2022/05/22 07:56:22;;;;;;;5.03;2.50;;;20.90;64.90;;;;;;5051247;28;20520;-64
2022/05/22 07:58:51;;;;;;;3.93;2.73;;;21.10;63.90;;;;;;5052636;28;20518;-66
2022/05/22 08:01:18;;;;;;;3.83;2.70;;;21.30;62.70;;;;;;5052714;28;20492;-64
2022/05/22 08:03:46;;;;;;;3.30;2.50;;;21.40;64.20;;;;;;5051226;28;20437;-65
2022/05/22 08:06:15;;;;;;;4.70;2.00;;;21.60;62.40;;;;;;5053074;28;20441;-64
2022/05/22 08:08:44;;;;;;;2.70;1.70;;;21.70;60.10;;;;;;5051971;28;20476;-64
2022/05/22 08:11:16;;;;;;;4.80;2.30;;;21.80;59.80;;;;;;5052187;28;20491;-65
2022/05/22 08:13:45;;;;;;;3.00;1.70;;;22.00;59.50;;;;;;5052512;28;20444;-64
2022/05/22 08:16:12;;;;;;;7.10;2.17;;;22.20;57.60;;;;;;5052347;28;20524;-64
2022/05/22 08:18:44;;;;;;;3.90;2.17;;;22.30;57.40;;;;;;5051967;28;20499;-66
2022/05/22 08:21:12;;;;;;;3.20;2.17;;;22.50;57.50;;;;;;5052193;28;20499;-64
2022/05/22 08:23:40;;;;;;;5.70;2.33;;;22.70;57.30;;;;;;5052230;28;20539;-65
2022/05/22 08:26:08;;;;;;;3.43;1.37;;;22.80;57.90;;;;;;5052042;28;20441;-66
2022/05/22 08:28:36;;;;;;;3.57;2.00;;;23.10;56.20;;;;;;5048572;28;20473;-65
2022/05/22 08:31:06;;;;;;;3.37;1.20;;;23.30;55.30;;;;;;5050502;28;20432;-66
2022/05/22 08:33:34;;;;;;;2.63;1.47;;;23.40;54.30;;;;;;5052325;28;20440;-69
2022/05/22 08:36:03;;;;;;;5.43;1.67;;;23.60;52.00;;;;;;5050846;28;20437;-65
2022/05/22 08:38:31;;;;;;;3.23;1.67;;;23.70;50.50;;;;;;5051263;28;20444;-65
2022/05/22 08:41:09;;;;;;;2.90;1.67;;;23.90;49.90;;;;;;5051487;28;20798;-65
2022/05/22 08:43:41;;;;;;;3.70;1.50;;;24.00;50.30;;;;;;5047812;28;20966;-66
2022/05/22 08:46:16;;;;;;;3.13;1.40;;;24.10;47.60;;;;;;5051238;28;20464;-65
2022/05/22 08:48:48;;;;;;;4.87;1.70;;;24.20;47.60;;;;;;5051635;28;20986;-66
2022/05/22 08:51:18;;;;;;;6.87;2.03;;;24.30;48.30;;;;;;5051467;28;20449;-64
2022/05/22 08:53:50;;;;;;;3.00;2.07;;;24.50;50.10;;;;;;5051554;28;20500;-66
2022/05/22 08:59:13;;;;;;;3.10;1.67;;;24.80;46.40;;;;;;5051995;28;20429;-65
2022/05/22 09:01:48;;;;;;;5.93;1.63;;;25.00;48.60;;;;;;5051553;28;20442;-65
2022/05/22 09:04:33;;;;;;;5.30;1.80;;;25.20;48.00;;;;;;5051303;28;20878;-65
2022/05/22 09:07:09;;;;;;;3.30;1.17;;;25.40;47.10;;;;;;5050801;28;20445;-65
2022/05/22 09:09:40;;;;;;;2.40;1.43;;;25.60;47.30;;;;;;5050464;28;20474;-65
2022/05/22 09:12:34;;;;;;;3.60;1.50;;;25.70;46.60;;;;;;5051248;28;20441;-65
2022/05/22 09:15:07;;;;;;;3.80;1.30;;;25.80;45.70;;;;;;5049461;28;20999;-65
2022/05/22 09:17:39;;;;;;;2.40;1.40;;;25.90;44.70;;;;;;5047069;28;20453;-66
2022/05/22 09:20:16;;;;;;;2.40;1.50;;;25.90;44.70;;;;;;5050982;28;20526;-65
2022/05/22 09:22:53;;;;;;;4.07;1.70;;;26.00;43.30;;;;;;5050728;28;20428;-65
2022/05/22 09:25:27;;;;;;;2.40;1.43;;;26.00;42.30;;;;;;5051746;28;20909;-65
2022/05/22 09:28:06;;;;;;;2.63;1.40;;;26.00;42.50;;;;;;5047542;28;20472;-65
2022/05/22 09:30:41;;;;;;;5.43;1.60;;;26.10;43.10;;;;;;5051207;28;20506;-65
2022/05/22 09:33:18;;;;;;;2.73;1.50;;;26.20;43.00;;;;;;5050648;28;20510;-65
2022/05/22 09:35:58;;;;;;;3.63;1.50;;;26.30;43.60;;;;;;5049841;28;20435;-65
2022/05/22 09:38:46;;;;;;;3.30;1.40;;;26.40;43.00;;;;;;5048008;28;20516;-66
2022/05/22 09:41:24;;;;;;;2.60;1.30;;;26.60;42.50;;;;;;5047296;28;20440;-65
2022/05/22 09:44:10;;;;;;;3.47;1.53;;;26.60;41.20;;;;;;5050920;28;20946;-66
2022/05/22 09:47:00;;;;;;;2.67;1.20;;;26.70;41.20;;;;;;5050055;28;20530;-65
2022/05/22 09:49:42;;;;;;;2.33;1.43;;;26.70;37.50;;;;;;5048098;28;20479;-65
2022/05/22 09:52:18;;;;;;;7.33;1.50;;;26.70;39.50;;;;;;5046030;28;20437;-65
2022/05/22 09:55:00;;;;;;;2.30;1.30;;;26.80;39.20;;;;;;5052919;28;20531;-65
2022/05/22 09:57:41;;;;;;;3.03;1.50;;;26.90;41.30;;;;;;5052647;28;20519;-65
2022/05/22 10:00:13;;;;;;;2.23;1.40;;;27.00;38.70;;;;;;5052709;28;20939;-65
2022/05/22 10:02:47;;;;;;;4.93;1.47;;;27.00;39.10;;;;;;5053280;28;20441;-65
2022/05/22 10:05:30;;;;;;;3.47;1.47;;;27.10;38.40;;;;;;5052725;28;20521;-66
2022/05/22 10:08:08;;;;;;;2.73;1.30;;;27.10;36.10;;;;;;5052818;28;20524;-65
2022/05/22 10:10:43;;;;;;;2.40;1.30;;;27.10;38.40;;;;;;5052487;28;20570;-66
2022/05/22 10:13:18;;;;;;;3.80;1.70;;;27.10;39.30;;;;;;5052698;28;20767;-65
2022/05/22 10:15:59;;;;;;;4.67;1.30;;;27.10;39.60;;;;;;5052694;28;20444;-65
2022/05/22 10:18:45;;;;;;;2.80;1.80;;;27.10;39.40;;;;;;5052619;28;20464;-65
2022/05/22 10:21:23;;;;;;;4.17;1.63;;;27.10;38.60;;;;;;5052445;28;20452;-65
2022/05/22 10:24:13;;;;;;;3.63;1.50;;;27.10;38.00;;;;;;5052170;28;20437;-67
2022/05/22 10:26:54;;;;;;;2.43;1.33;;;27.10;37.30;;;;;;5052561;28;20528;-65
2022/05/22 10:29:26;;;;;;;3.50;1.63;;;27.10;37.30;;;;;;5052098;28;20534;-65
2022/05/22 10:32:02;;;;;;;3.93;1.77;;;27.20;39.50;;;;;;5052444;28;20527;-65
2022/05/22 10:34:39;;;;;;;5.40;1.47;;;27.30;39.80;;;;;;5052831;28;20523;-65
2022/05/22 10:37:15;;;;;;;3.47;1.90;;;27.30;39.60;;;;;;5052472;28;20517;-65
2022/05/22 10:39:42;;;;;;;3.23;1.80;;;27.30;38.40;;;;;;5052040;28;20475;-65
2022/05/22 10:45:09;;;;;;;4.47;2.00;;;27.40;38.30;;;;;;5052621;28;20897;-65
2022/05/22 10:47:37;;;;;;;3.37;1.77;;;27.40;36.60;;;;;;5052384;28;20563;-65
2022/05/22 10:50:17;;;;;;;3.80;1.77;;;27.40;38.80;;;;;;5052197;28;20480;-65
2022/05/22 10:52:46;;;;;;;3.60;1.63;;;27.50;39.10;;;;;;5052452;28;20440;-65
2022/05/22 10:55:45;;;;;;;2.63;1.63;;;27.60;37.80;;;;;;5052384;28;20531;-65
2022/05/22 10:58:25;;;;;;;3.80;1.30;;;27.60;37.00;;;;;;5040045;28;20522;-65
2022/05/22 11:00:56;;;;;;;4.07;1.47;;;27.60;37.90;;;;;;5052683;28;20463;-66
2022/05/22 11:03:28;;;;;;;6.17;1.80;;;27.70;36.60;;;;;;5054971;28;20482;-65
2022/05/22 11:05:57;;;;;;;2.80;1.70;;;27.80;36.50;;;;;;5056301;28;20524;-65
2022/05/22 11:08:32;;;;;;;4.73;1.57;;;27.80;35.90;;;;;;5055645;28;20473;-64
2022/05/22 11:11:13;;;;;;;3.30;1.20;;;27.80;36.60;;;;;;5055567;28;20579;-65
2022/05/22 11:13:41;;;;;;;2.00;1.20;;;27.80;37.90;;;;;;5056111;28;20779;-66
2022/05/22 11:16:19;;;;;;;3.37;1.30;;;27.80;39.20;;;;;;5055501;28;20915;-65
2022/05/22 11:18:47;;;;;;;2.80;1.90;;;27.90;37.60;;;;;;5055935;28;20984;-65
2022/05/22 11:21:28;;;;;;;3.67;1.43;;;27.80;37.90;;;;;;5055493;28;21005;-65
2022/05/22 11:24:15;;;;;;;3.63;1.47;;;27.90;38.30;;;;;;5055408;28;20528;-65
2022/05/22 11:26:54;;;;;;;2.33;1.57;;;27.90;36.90;;;;;;5055430;28;20446;-65
2022/05/22 11:29:35;;;;;;;2.63;1.50;;;28.00;38.30;;;;;;5055670;28;20871;-65
2022/05/22 11:32:11;;;;;;;5.80;1.40;;;28.00;37.00;;;;;;5055443;28;20451;-66
2022/05/22 11:35:03;;;;;;;2.73;1.40;;;28.00;38.10;;;;;;5055582;28;20542;-66
2022/05/22 11:37:45;;;;;;;2.60;1.50;;;28.10;35.60;;;;;;5055351;28;20431;-65
2022/05/22 11:40:26;;;;;;;6.10;1.73;;;28.10;37.90;;;;;;5054872;28;20985;-65
2022/05/22 11:43:02;;;;;;;2.50;1.97;;;28.30;38.50;;;;;;5055314;28;20443;-66
2022/05/22 11:45:37;;;;;;;2.70;1.40;;;28.30;36.30;;;;;;5055573;28;20539;-65
2022/05/22 11:48:27;;;;;;;2.30;1.33;;;28.30;36.10;;;;;;5054894;28;20472;-65
2022/05/22 11:51:09;;;;;;;5.77;1.50;;;28.40;37.40;;;;;;5054714;28;20572;-65
2022/05/22 11:54:04;;;;;;;5.70;1.47;;;28.40;37.10;;;;;;5055132;28;20468;-66
2022/05/22 11:56:43;;;;;;;2.27;1.13;;;28.40;37.10;;;;;;5055230;28;20433;-65
2022/05/22 11:59:24;;;;;;;2.90;1.77;;;28.40;37.40;;;;;;5055067;28;20480;-65
2022/05/22 12:01:59;;;;;;;2.77;1.40;;;28.40;34.40;;;;;;5055233;28;20447;-69
2022/05/22 12:04:51;;;;;;;2.90;1.30;;;28.20;34.80;;;;;;5054751;28;20443;-65
2022/05/22 12:07:43;;;;;;;2.40;1.30;;;28.20;36.60;;;;;;5054953;28;20436;-65
2022/05/22 12:10:15;;;;;;;3.90;1.50;;;28.30;36.00;;;;;;5049845;28;20523;-65
2022/05/22 12:12:48;;;;;;;2.57;1.37;;;28.40;38.10;;;;;;5054644;28;20433;-65
2022/05/22 12:15:26;;;;;;;2.30;1.33;;;28.50;38.00;;;;;;5053806;28;20440;-65
2022/05/22 12:17:59;;;;;;;4.17;1.30;;;28.60;37.10;;;;;;5054648;28;20458;-65
2022/05/22 12:20:32;;;;;;;2.80;1.30;;;28.60;36.70;;;;;;5054728;28;20476;-65
2022/05/22 12:23:14;;;;;;;2.83;1.30;;;28.70;36.70;;;;;;5054597;28;20468;-65
2022/05/22 12:25:45;;;;;;;2.37;1.30;;;28.70;36.50;;;;;;5054278;28;20806;-66
2022/05/22 12:28:45;;;;;;;3.10;1.50;;;28.70;35.60;;;;;;5054811;28;20499;-65
2022/05/22 12:31:18;;;;;;;3.63;1.57;;;28.70;36.00;;;;;;5054604;28;20563;-65
2022/05/22 12:33:46;;;;;;;3.50;1.67;;;28.70;34.80;;;;;;5054637;28;20520;-65
2022/05/22 12:36:14;;;;;;;5.00;1.40;;;28.70;35.10;;;;;;5054482;28;20463;-67
2022/05/22 12:38:53;;;;;;;2.00;1.17;;;28.70;36.40;;;;;;5054345;28;20531;-65
2022/05/22 12:41:38;;;;;;;4.90;1.50;;;28.70;36.70;;;;;;5053908;28;21002;-65
2022/05/22 12:44:07;;;;;;;3.47;1.67;;;28.70;36.00;;;;;;5054359;28;20515;-65
2022/05/22 12:46:35;;;;;;;2.20;1.13;;;28.60;35.40;;;;;;5054116;28;20436;-66
2022/05/22 12:49:08;;;;;;;3.47;1.37;;;28.50;35.10;;;;;;5054074;28;20508;-66
2022/05/22 12:51:42;;;;;;;4.07;1.20;;;28.40;36.80;;;;;;5053970;28;20472;-65
2022/05/22 12:54:22;;;;;;;4.83;2.10;;;28.50;36.50;;;;;;5053920;28;20890;-65
2022/05/22 12:56:50;;;;;;;2.70;1.43;;;28.50;35.00;;;;;;5053572;28;20919;-65
2022/05/22 12:59:24;;;;;;;2.47;1.07;;;28.50;36.50;;;;;;5053776;28;20524;-65
2022/05/22 13:01:53;;;;;;;2.93;1.63;;;28.40;35.50;;;;;;5054338;28;20465;-65
2022/05/22 13:04:35;;;;;;;2.40;1.00;;;28.40;35.70;;;;;;5053706;28;20510;-65
2022/05/22 13:07:10;;;;;;;3.13;1.30;;;28.50;35.30;;;;;;5053816;28;20502;-65
2022/05/22 13:09:42;;;;;;;2.37;1.20;;;28.50;35.60;;;;;;5053248;28;20479;-65
2022/05/22 13:12:26;;;;;;;3.97;1.53;;;28.50;35.00;;;;;;5053915;28;20980;-65
2022/05/22 13:14:56;;;;;;;2.70;1.47;;;28.40;34.80;;;;;;5053587;28;20447;-65
2022/05/22 13:17:35;;;;;;;3.73;1.43;;;28.40;36.60;;;;;;5053481;28;20490;-65